createdAt,value
2022-08-26T00:00:00.891Z,28.0100
2022-08-26T00:00:12.042Z,28.0200
2022-08-26T00:00:23.278Z,28.0200
2022-08-26T00:00:35.856Z,28.0200
2022-08-26T00:00:47.927Z,28.0200
2022-08-26T00:00:59.114Z,28.0200
2022-08-26T00:01:10.301Z,28.0200
2022-08-26T00:01:28.933Z,28.0300
2022-08-26T00:01:38.456Z,28.0300
2022-08-26T00:01:49.735Z,28.0100
2022-08-26T00:02:00.824Z,28.0100
2022-08-26T00:02:11.904Z,28.0200
2022-08-26T00:02:23.113Z,28.0200
2022-08-26T00:02:34.254Z,28.0200
2022-08-26T00:02:45.328Z,28.0200
2022-08-26T00:02:56.388Z,28.0200
2022-08-26T00:03:07.683Z,28.0200
2022-08-26T00:03:19.292Z,28.0300
2022-08-26T00:03:30.342Z,28.0300
2022-08-26T00:03:41.451Z,28.0200
2022-08-26T00:03:52.669Z,28.0300
2022-08-26T00:04:03.914Z,28.0300
2022-08-26T00:04:15.723Z,28.0300
2022-08-26T00:04:26.771Z,28.0300
2022-08-26T00:04:38.066Z,28.0300
2022-08-26T00:04:49.248Z,28.0400
2022-08-26T00:05:00.816Z,28.0400
2022-08-26T00:05:11.967Z,28.0400
2022-08-26T00:05:23.109Z,28.0400
2022-08-26T00:05:34.331Z,28.0400
2022-08-26T00:05:45.556Z,28.0400
2022-08-26T00:05:56.799Z,28.0500
2022-08-26T00:06:07.863Z,28.0500
2022-08-26T00:06:20.863Z,28.0500
2022-08-26T00:06:32.295Z,28.0400
2022-08-26T00:06:46.369Z,28.0300
2022-08-26T00:06:58.205Z,28.0400
2022-08-26T00:07:09.311Z,28.0200
2022-08-26T00:07:20.365Z,28.0200
2022-08-26T00:07:31.415Z,28.0200
2022-08-26T00:07:43.376Z,28.0200
2022-08-26T00:07:54.930Z,28.0200
2022-08-26T00:08:06.573Z,28.0200
2022-08-26T00:08:18.738Z,28.0200
2022-08-26T00:08:29.809Z,28.0200
2022-08-26T00:08:41.022Z,28.0200
2022-08-26T00:08:52.919Z,28.0200
2022-08-26T00:09:04.041Z,28.0200
2022-08-26T00:09:19.101Z,28.0200
2022-08-26T00:09:30.309Z,28.0100
2022-08-26T00:09:41.522Z,28.0200
2022-08-26T00:09:58.649Z,28.0300
2022-08-26T00:10:09.839Z,28.0100
2022-08-26T00:10:21.397Z,28.0100
2022-08-26T00:10:37.079Z,28.0100
2022-08-26T00:10:48.212Z,28.0000
2022-08-26T00:11:00.355Z,28.0100
2022-08-26T00:11:11.903Z,28.0100
2022-08-26T00:11:26.616Z,28.0200
2022-08-26T00:11:38.402Z,28.0200
2022-08-26T00:11:49.541Z,28.0000
2022-08-26T00:12:02.441Z,28.0100
2022-08-26T00:12:13.492Z,28.0100
2022-08-26T00:12:31.566Z,28.0200
2022-08-26T00:12:41.653Z,28.0200
2022-08-26T00:12:52.700Z,28.0000
2022-08-26T00:13:03.818Z,28.0100
2022-08-26T00:13:14.867Z,28.0100
2022-08-26T00:13:25.946Z,28.0200
2022-08-26T00:13:37.037Z,28.0200
2022-08-26T00:13:48.857Z,28.0200
2022-08-26T00:14:00.671Z,28.0200
2022-08-26T00:14:12.458Z,28.0100
2022-08-26T00:14:29.539Z,28.0100
2022-08-26T00:14:41.793Z,28.0000
2022-08-26T00:14:52.974Z,27.9800
2022-08-26T00:15:04.544Z,27.9800
2022-08-26T00:15:15.584Z,27.9900
2022-08-26T00:15:26.662Z,28.0000
2022-08-26T00:15:38.399Z,28.0000
2022-08-26T00:15:49.438Z,27.9900
2022-08-26T00:16:00.505Z,28.0000
2022-08-26T00:16:11.710Z,28.0000
2022-08-26T00:16:22.887Z,28.0100
2022-08-26T00:16:34.022Z,28.0100
2022-08-26T00:16:47.986Z,28.0100
2022-08-26T00:16:59.800Z,28.0100
2022-08-26T00:17:10.949Z,28.0000
2022-08-26T00:17:22.330Z,28.0000
2022-08-26T00:17:33.449Z,28.0000
2022-08-26T00:17:44.662Z,28.0100
2022-08-26T00:17:55.811Z,28.0100
2022-08-26T00:18:16.817Z,28.0200
2022-08-26T00:18:23.840Z,28.0200
2022-08-26T00:18:38.842Z,28.0000
2022-08-26T00:18:51.984Z,27.9900
2022-08-26T00:19:03.062Z,27.9900
2022-08-26T00:19:14.138Z,28.0000
2022-08-26T00:19:25.971Z,28.0100
2022-08-26T00:19:37.017Z,28.0200
2022-08-26T00:19:48.080Z,28.0200
2022-08-26T00:19:59.290Z,28.0200
2022-08-26T00:20:10.331Z,28.0200
2022-08-26T00:20:22.261Z,28.0200
2022-08-26T00:20:33.300Z,28.0100
2022-08-26T00:20:44.903Z,28.0200
2022-08-26T00:20:56.048Z,28.0100
2022-08-26T00:21:07.114Z,28.0200
2022-08-26T00:21:18.173Z,28.0200
2022-08-26T00:21:29.511Z,28.0200
2022-08-26T00:21:41.226Z,28.0200
2022-08-26T00:21:52.278Z,28.0200
2022-08-26T00:22:04.295Z,28.0100
2022-08-26T00:22:21.581Z,28.0100
2022-08-26T00:22:32.406Z,28.0200
2022-08-26T00:22:43.517Z,28.0000
2022-08-26T00:22:54.805Z,28.0000
2022-08-26T00:23:06.077Z,28.0100
2022-08-26T00:23:17.945Z,28.0100
2022-08-26T00:23:29.045Z,28.0100
2022-08-26T00:23:40.086Z,28.0100
2022-08-26T00:23:51.165Z,28.0100
2022-08-26T00:24:03.092Z,28.0200
2022-08-26T00:24:14.431Z,28.0200
2022-08-26T00:24:25.491Z,28.0200
2022-08-26T00:24:37.061Z,28.0200
2022-08-26T00:24:48.903Z,28.0200
2022-08-26T00:25:00.240Z,28.0200
2022-08-26T00:25:11.288Z,28.0200
2022-08-26T00:25:22.736Z,28.0200
2022-08-26T00:25:33.799Z,28.0200
2022-08-26T00:25:44.954Z,28.0200
2022-08-26T00:25:56.844Z,28.0200
2022-08-26T00:26:08.328Z,28.0200
2022-08-26T00:26:22.063Z,28.0200
2022-08-26T00:26:39.033Z,28.0200
2022-08-26T00:26:52.693Z,28.0000
2022-08-26T00:27:03.863Z,28.0000
2022-08-26T00:27:17.663Z,28.0100
2022-08-26T00:27:28.822Z,28.0100
2022-08-26T00:27:40.037Z,28.0100
2022-08-26T00:27:51.287Z,28.0200
2022-08-26T00:28:03.447Z,28.0200
2022-08-26T00:28:14.607Z,28.0200
2022-08-26T00:28:30.327Z,28.0200
2022-08-26T00:28:41.370Z,28.0000
2022-08-26T00:28:52.560Z,28.0100
2022-08-26T00:29:04.253Z,28.0200
2022-08-26T00:29:16.474Z,28.0200
2022-08-26T00:29:28.892Z,28.0200
2022-08-26T00:29:43.021Z,28.0100
2022-08-26T00:29:54.165Z,28.0000
2022-08-26T00:30:08.065Z,28.0100
2022-08-26T00:30:22.938Z,28.0000
2022-08-26T00:30:36.282Z,28.0100
2022-08-26T00:30:47.393Z,27.9900
2022-08-26T00:30:58.511Z,28.0000
2022-08-26T00:31:10.784Z,28.0100
2022-08-26T00:31:22.532Z,28.0100
2022-08-26T00:31:34.054Z,28.0100
2022-08-26T00:31:47.161Z,28.0100
2022-08-26T00:31:58.340Z,28.0000
2022-08-26T00:32:09.419Z,28.0000
2022-08-26T00:32:22.511Z,28.0000
2022-08-26T00:32:33.666Z,28.0000
2022-08-26T00:32:46.374Z,28.0000
2022-08-26T00:32:57.976Z,27.9900
2022-08-26T00:33:09.277Z,28.0000
2022-08-26T00:33:20.607Z,28.0000
2022-08-26T00:33:31.660Z,28.0000
2022-08-26T00:33:42.951Z,28.0100
2022-08-26T00:33:56.090Z,28.0100
2022-08-26T00:34:07.302Z,28.0100
2022-08-26T00:34:20.814Z,28.0100
2022-08-26T00:34:31.905Z,28.0000
2022-08-26T00:34:43.024Z,28.0100
2022-08-26T00:34:54.085Z,28.0100
2022-08-26T00:35:05.306Z,28.0100
2022-08-26T00:35:16.969Z,28.0100
2022-08-26T00:35:28.106Z,28.0100
2022-08-26T00:35:39.166Z,28.0100
2022-08-26T00:35:56.296Z,28.0100
2022-08-26T00:36:07.856Z,27.9900
2022-08-26T00:36:24.803Z,28.0000
2022-08-26T00:36:41.755Z,27.9900
2022-08-26T00:36:54.269Z,27.9800
2022-08-26T00:37:08.951Z,27.9800
2022-08-26T00:37:21.373Z,27.9900
2022-08-26T00:37:33.624Z,27.9800
2022-08-26T00:37:44.782Z,27.9900
2022-08-26T00:37:57.620Z,28.0000
2022-08-26T00:38:08.779Z,28.0000
2022-08-26T00:38:20.665Z,28.0000
2022-08-26T00:38:31.706Z,28.0100
2022-08-26T00:38:43.379Z,28.0100
2022-08-26T00:38:54.605Z,28.0100
2022-08-26T00:39:05.670Z,28.0100
2022-08-26T00:39:17.364Z,28.0200
2022-08-26T00:39:29.865Z,28.0100
2022-08-26T00:39:41.005Z,28.0100
2022-08-26T00:39:52.117Z,28.0100
2022-08-26T00:40:05.387Z,28.0100
2022-08-26T00:40:16.647Z,28.0100
2022-08-26T00:40:28.475Z,28.0000
2022-08-26T00:40:39.500Z,28.0100
2022-08-26T00:40:50.566Z,28.0100
2022-08-26T00:41:01.623Z,28.0100
2022-08-26T00:41:12.860Z,28.0100
2022-08-26T00:41:24.484Z,28.0200
2022-08-26T00:41:35.649Z,28.0200
2022-08-26T00:41:46.809Z,28.0200
2022-08-26T00:41:57.898Z,28.0200
2022-08-26T00:42:08.980Z,28.0200
2022-08-26T00:42:20.195Z,28.0200
2022-08-26T00:42:32.380Z,28.0200
2022-08-26T00:42:46.054Z,28.0100
2022-08-26T00:42:57.619Z,28.0200
2022-08-26T00:43:09.295Z,28.0000
2022-08-26T00:43:20.817Z,28.0100
2022-08-26T00:43:33.299Z,28.0100
2022-08-26T00:43:50.234Z,28.0100
2022-08-26T00:44:01.444Z,28.0000
2022-08-26T00:44:12.586Z,28.0000
2022-08-26T00:44:23.752Z,28.0100
2022-08-26T00:44:34.990Z,28.0200
2022-08-26T00:44:46.160Z,28.0200
2022-08-26T00:44:57.360Z,28.0300
2022-08-26T00:45:10.250Z,28.0300
2022-08-26T00:45:23.125Z,28.0300
2022-08-26T00:45:34.352Z,28.0200
2022-08-26T00:45:45.565Z,28.0300
2022-08-26T00:45:56.993Z,28.0300
2022-08-26T00:46:08.018Z,28.0300
2022-08-26T00:46:19.060Z,28.0300
2022-08-26T00:46:30.195Z,28.0300
2022-08-26T00:46:46.668Z,28.0300
2022-08-26T00:46:58.168Z,28.0200
2022-08-26T00:47:09.339Z,28.0100
2022-08-26T00:47:20.381Z,28.0100
2022-08-26T00:47:32.390Z,28.0200
2022-08-26T00:47:43.615Z,28.0200
2022-08-26T00:47:54.684Z,28.0200
2022-08-26T00:48:05.744Z,28.0200
2022-08-26T00:48:16.845Z,28.0200
2022-08-26T00:48:27.929Z,28.0300
2022-08-26T00:48:43.386Z,28.0300
2022-08-26T00:48:54.449Z,28.0200
2022-08-26T00:49:12.388Z,28.0200
2022-08-26T00:49:22.590Z,28.0300
2022-08-26T00:49:33.700Z,28.0100
2022-08-26T00:49:44.927Z,28.0100
2022-08-26T00:49:55.994Z,28.0100
2022-08-26T00:50:07.168Z,28.0200
2022-08-26T00:50:20.976Z,28.0200
2022-08-26T00:50:32.020Z,28.0100
2022-08-26T00:50:43.286Z,28.0100
2022-08-26T00:50:54.391Z,28.0200
2022-08-26T00:51:05.428Z,28.0200
2022-08-26T00:51:16.788Z,28.0200
2022-08-26T00:51:29.860Z,28.0200
2022-08-26T00:51:41.139Z,28.0200
2022-08-26T00:51:53.605Z,28.0000
2022-08-26T00:52:04.789Z,28.0000
2022-08-26T00:52:17.311Z,28.0000
2022-08-26T00:52:28.471Z,28.0000
2022-08-26T00:52:39.508Z,28.0000
2022-08-26T00:52:55.054Z,28.0000
2022-08-26T00:53:06.419Z,27.9800
2022-08-26T00:53:17.789Z,27.9900
2022-08-26T00:53:28.950Z,27.9900
2022-08-26T00:53:41.378Z,28.0000
2022-08-26T00:53:52.747Z,28.0000
2022-08-26T00:54:03.911Z,28.0000
2022-08-26T00:54:14.962Z,28.0000
2022-08-26T00:54:26.998Z,28.0100
2022-08-26T00:54:38.507Z,28.0100
2022-08-26T00:54:53.557Z,28.0000
2022-08-26T00:55:04.802Z,27.9800
2022-08-26T00:55:20.112Z,27.9800
2022-08-26T00:55:37.822Z,27.9800
2022-08-26T00:55:48.588Z,27.9700
2022-08-26T00:55:59.772Z,27.9600
2022-08-26T00:56:10.834Z,27.9700
2022-08-26T00:56:24.647Z,27.9800
2022-08-26T00:56:35.794Z,27.9800
2022-08-26T00:56:47.001Z,27.9900
2022-08-26T00:57:00.119Z,28.0000
2022-08-26T00:57:15.981Z,28.0000
2022-08-26T00:57:28.681Z,28.0000
2022-08-26T00:57:39.841Z,27.9800
2022-08-26T00:57:50.905Z,27.9800
2022-08-26T00:58:01.958Z,27.9900
2022-08-26T00:58:13.099Z,28.0000
2022-08-26T00:58:24.166Z,28.0000
2022-08-26T00:58:35.993Z,28.0100
2022-08-26T00:58:47.070Z,28.0000
2022-08-26T00:58:58.771Z,28.0100
2022-08-26T00:59:11.281Z,28.0100
2022-08-26T00:59:22.341Z,28.0000
2022-08-26T00:59:33.847Z,28.0100
2022-08-26T00:59:45.111Z,28.0100
2022-08-26T00:59:56.211Z,28.0100
2022-08-26T01:00:07.285Z,28.0000
2022-08-26T01:00:19.698Z,28.0100
2022-08-26T01:00:30.830Z,28.0000
2022-08-26T01:00:42.401Z,28.0100
2022-08-26T01:00:56.341Z,28.0000
2022-08-26T01:01:07.535Z,27.9900
2022-08-26T01:01:18.734Z,27.9900
2022-08-26T01:01:34.318Z,27.9900
2022-08-26T01:01:46.002Z,27.9800
2022-08-26T01:01:57.892Z,27.9900
2022-08-26T01:02:09.050Z,27.9900
2022-08-26T01:02:26.067Z,27.9900
2022-08-26T01:02:40.109Z,27.9800
2022-08-26T01:02:57.032Z,27.9700
2022-08-26T01:03:11.626Z,27.9700
2022-08-26T01:03:23.930Z,27.9700
2022-08-26T01:03:35.447Z,27.9700
2022-08-26T01:03:46.580Z,27.9800
2022-08-26T01:03:57.748Z,27.9900
2022-08-26T01:04:08.801Z,28.0000
2022-08-26T01:04:20.095Z,28.0000
2022-08-26T01:04:31.204Z,28.0000
2022-08-26T01:04:42.403Z,28.0100
2022-08-26T01:04:55.604Z,28.0100
2022-08-26T01:05:07.415Z,28.0100
2022-08-26T01:05:18.649Z,28.0000
2022-08-26T01:05:29.779Z,28.0000
2022-08-26T01:05:41.675Z,28.0100
2022-08-26T01:05:52.713Z,28.0100
2022-08-26T01:06:05.665Z,28.0200
2022-08-26T01:06:22.629Z,28.0100
2022-08-26T01:06:35.113Z,27.9900
2022-08-26T01:06:46.284Z,27.9900
2022-08-26T01:06:57.449Z,28.0000
2022-08-26T01:07:08.499Z,28.0100
2022-08-26T01:07:19.564Z,28.0100
2022-08-26T01:07:31.245Z,28.0100
2022-08-26T01:07:42.622Z,28.0100
2022-08-26T01:07:53.692Z,28.0000
2022-08-26T01:08:04.753Z,28.0100
2022-08-26T01:08:15.836Z,28.0200
2022-08-26T01:08:27.079Z,28.0200
2022-08-26T01:08:39.170Z,28.0200
2022-08-26T01:08:50.206Z,28.0200
2022-08-26T01:09:01.276Z,28.0200
2022-08-26T01:09:12.423Z,28.0200
2022-08-26T01:09:23.480Z,28.0200
2022-08-26T01:09:34.533Z,28.0200
2022-08-26T01:09:45.587Z,28.0200
2022-08-26T01:09:56.659Z,28.0200
2022-08-26T01:10:07.749Z,28.0200
2022-08-26T01:10:18.817Z,28.0200
2022-08-26T01:10:29.951Z,28.0100
2022-08-26T01:10:41.085Z,28.0200
2022-08-26T01:10:52.203Z,28.0100
2022-08-26T01:11:06.962Z,28.0100
2022-08-26T01:11:18.225Z,28.0000
2022-08-26T01:11:29.581Z,28.0000
2022-08-26T01:11:40.717Z,28.0000
2022-08-26T01:11:51.797Z,28.0100
2022-08-26T01:12:02.886Z,28.0100
2022-08-26T01:12:14.058Z,28.0100
2022-08-26T01:12:25.141Z,28.0100
2022-08-26T01:12:36.622Z,28.0100
2022-08-26T01:12:51.262Z,28.0100
2022-08-26T01:13:02.668Z,27.9900
2022-08-26T01:13:14.636Z,27.9900
2022-08-26T01:13:25.679Z,28.0000
2022-08-26T01:13:37.515Z,28.0000
2022-08-26T01:13:48.717Z,28.0000
2022-08-26T01:13:59.847Z,28.0000
2022-08-26T01:14:10.933Z,28.0000
2022-08-26T01:14:22.022Z,28.0000
2022-08-26T01:14:33.266Z,28.0000
2022-08-26T01:14:46.520Z,28.0100
2022-08-26T01:14:57.610Z,28.0100
2022-08-26T01:15:09.203Z,28.0000
2022-08-26T01:15:21.388Z,28.0000
2022-08-26T01:15:32.769Z,27.9900
2022-08-26T01:15:44.141Z,28.0000
2022-08-26T01:15:55.391Z,28.0000
2022-08-26T01:16:06.544Z,28.0000
2022-08-26T01:16:17.689Z,28.0000
2022-08-26T01:16:28.773Z,28.0000
2022-08-26T01:16:39.841Z,28.0000
2022-08-26T01:16:53.612Z,28.0000
2022-08-26T01:17:05.076Z,27.9900
2022-08-26T01:17:16.162Z,28.0000
2022-08-26T01:17:27.214Z,28.0000
2022-08-26T01:17:38.452Z,28.0000
2022-08-26T01:17:49.830Z,28.0100
2022-08-26T01:18:00.941Z,28.0100
2022-08-26T01:18:12.820Z,28.0100
2022-08-26T01:18:23.985Z,28.0000
2022-08-26T01:18:35.042Z,28.0100
2022-08-26T01:18:46.100Z,28.0100
2022-08-26T01:18:57.262Z,28.0100
2022-08-26T01:19:08.461Z,28.0200
2022-08-26T01:19:19.861Z,28.0100
2022-08-26T01:19:30.920Z,28.0100
2022-08-26T01:19:42.082Z,28.0100
2022-08-26T01:19:53.140Z,28.0100
2022-08-26T01:20:04.252Z,28.0100
2022-08-26T01:20:15.427Z,28.0200
2022-08-26T01:20:26.488Z,28.0200
2022-08-26T01:20:37.550Z,28.0200
2022-08-26T01:20:48.632Z,28.0200
2022-08-26T01:20:59.681Z,28.0200
2022-08-26T01:21:11.072Z,28.0200
2022-08-26T01:21:22.535Z,28.0200
2022-08-26T01:21:33.618Z,28.0200
2022-08-26T01:21:45.138Z,28.0200
2022-08-26T01:21:56.192Z,28.0200
2022-08-26T01:22:08.266Z,28.0200
2022-08-26T01:22:19.432Z,28.0200
2022-08-26T01:22:31.946Z,28.0300
2022-08-26T01:22:43.099Z,28.0200
2022-08-26T01:22:54.893Z,28.0200
2022-08-26T01:23:06.183Z,28.0300
2022-08-26T01:23:21.692Z,28.0300
2022-08-26T01:23:34.493Z,28.0200
2022-08-26T01:23:45.643Z,28.0100
2022-08-26T01:23:57.341Z,28.0200
2022-08-26T01:24:09.040Z,28.0200
2022-08-26T01:24:21.511Z,28.0200
2022-08-26T01:24:32.562Z,28.0200
2022-08-26T01:24:43.768Z,28.0300
2022-08-26T01:24:54.869Z,28.0300
2022-08-26T01:25:06.058Z,28.0200
2022-08-26T01:25:18.726Z,28.0200
2022-08-26T01:25:29.791Z,28.0200
2022-08-26T01:25:40.950Z,28.0200
2022-08-26T01:25:54.414Z,28.0300
2022-08-26T01:26:06.910Z,28.0200
2022-08-26T01:26:19.653Z,28.0100
2022-08-26T01:26:31.146Z,28.0200
2022-08-26T01:26:43.877Z,28.0100
2022-08-26T01:26:54.917Z,28.0000
2022-08-26T01:27:05.965Z,28.0100
2022-08-26T01:27:18.694Z,28.0100
2022-08-26T01:27:29.738Z,28.0100
2022-08-26T01:27:43.703Z,28.0100
2022-08-26T01:27:56.003Z,28.0000
2022-08-26T01:28:08.797Z,28.0000
2022-08-26T01:28:19.933Z,27.9900
2022-08-26T01:28:31.094Z,28.0000
2022-08-26T01:28:42.292Z,28.0000
2022-08-26T01:28:53.341Z,28.0100
2022-08-26T01:29:04.471Z,28.0100
2022-08-26T01:29:16.041Z,28.0200
2022-08-26T01:29:27.191Z,28.0200
2022-08-26T01:29:38.380Z,28.0100
2022-08-26T01:29:50.669Z,28.0200
2022-08-26T01:30:01.733Z,28.0100
2022-08-26T01:30:12.879Z,28.0100
2022-08-26T01:30:24.047Z,28.0100
2022-08-26T01:30:35.110Z,28.0100
2022-08-26T01:30:46.179Z,28.0200
2022-08-26T01:30:57.254Z,28.0200
2022-08-26T01:31:09.005Z,28.0200
2022-08-26T01:31:21.904Z,28.0200
2022-08-26T01:31:33.020Z,28.0100
2022-08-26T01:31:44.710Z,28.0000
2022-08-26T01:31:55.850Z,28.0000
2022-08-26T01:32:07.103Z,28.0000
2022-08-26T01:32:18.316Z,28.0000
2022-08-26T01:32:29.503Z,28.0000
2022-08-26T01:32:40.704Z,28.0000
2022-08-26T01:32:52.552Z,28.0100
2022-08-26T01:33:03.733Z,28.0100
2022-08-26T01:33:14.896Z,28.0100
2022-08-26T01:33:25.951Z,28.0100
2022-08-26T01:33:42.170Z,28.0100
2022-08-26T01:33:54.017Z,28.0100
2022-08-26T01:34:05.068Z,27.9900
2022-08-26T01:34:16.118Z,27.9900
2022-08-26T01:34:27.335Z,27.9900
2022-08-26T01:34:38.535Z,28.0000
2022-08-26T01:34:49.717Z,28.0000
2022-08-26T01:35:01.000Z,28.0000
2022-08-26T01:35:12.246Z,28.0000
2022-08-26T01:35:23.857Z,28.0000
2022-08-26T01:35:35.052Z,28.0000
2022-08-26T01:35:46.187Z,28.0000
2022-08-26T01:35:57.240Z,28.0000
2022-08-26T01:36:08.276Z,28.0100
2022-08-26T01:36:19.812Z,28.0100
2022-08-26T01:36:31.780Z,28.0000
2022-08-26T01:36:42.914Z,27.9900
2022-08-26T01:36:57.936Z,27.9900
2022-08-26T01:37:09.060Z,27.9800
2022-08-26T01:37:26.018Z,27.9800
2022-08-26T01:37:37.221Z,27.9700
2022-08-26T01:37:51.656Z,27.9700
2022-08-26T01:38:04.140Z,27.9700
2022-08-26T01:38:15.267Z,27.9700
2022-08-26T01:38:26.893Z,27.9800
2022-08-26T01:38:42.841Z,27.9800
2022-08-26T01:38:53.901Z,27.9700
2022-08-26T01:39:05.830Z,27.9800
2022-08-26T01:39:18.527Z,27.9900
2022-08-26T01:39:29.598Z,27.9800
2022-08-26T01:39:40.724Z,27.9900
2022-08-26T01:39:53.101Z,28.0000
2022-08-26T01:40:04.168Z,27.9900
2022-08-26T01:40:16.848Z,28.0000
2022-08-26T01:40:28.407Z,28.0000
2022-08-26T01:40:39.507Z,28.0000
2022-08-26T01:40:50.791Z,28.0000
2022-08-26T01:41:01.875Z,28.0100
2022-08-26T01:41:19.547Z,28.0100
2022-08-26T01:41:30.657Z,28.0100
2022-08-26T01:41:44.030Z,27.9900
2022-08-26T01:41:55.217Z,27.9900
2022-08-26T01:42:10.394Z,27.9900
2022-08-26T01:42:21.656Z,28.0000
2022-08-26T01:42:34.982Z,27.9900
2022-08-26T01:42:46.162Z,27.9800
2022-08-26T01:42:58.044Z,27.9900
2022-08-26T01:43:09.401Z,27.9900
2022-08-26T01:43:20.856Z,27.9900
2022-08-26T01:43:33.139Z,27.9900
2022-08-26T01:43:44.339Z,27.9900
2022-08-26T01:43:55.477Z,27.9900
2022-08-26T01:44:06.550Z,28.0000
2022-08-26T01:44:21.101Z,28.0000
2022-08-26T01:44:32.161Z,27.9900
2022-08-26T01:44:43.251Z,27.9900
2022-08-26T01:44:54.962Z,27.9900
2022-08-26T01:45:07.488Z,27.9900
2022-08-26T01:45:18.553Z,27.9900
2022-08-26T01:45:30.893Z,27.9800
2022-08-26T01:45:42.425Z,27.9800
2022-08-26T01:45:53.591Z,27.9900
2022-08-26T01:46:04.680Z,27.9900
2022-08-26T01:46:15.747Z,27.9900
2022-08-26T01:46:26.849Z,27.9900
2022-08-26T01:46:37.922Z,27.9900
2022-08-26T01:46:50.721Z,27.9900
2022-08-26T01:47:01.877Z,27.9800
2022-08-26T01:47:13.001Z,27.9900
2022-08-26T01:47:24.138Z,27.9900
2022-08-26T01:47:35.311Z,27.9900
2022-08-26T01:47:46.348Z,27.9900
2022-08-26T01:47:59.515Z,27.9900
2022-08-26T01:48:11.378Z,27.9800
2022-08-26T01:48:22.538Z,27.9800
2022-08-26T01:48:34.368Z,27.9800
2022-08-26T01:48:46.247Z,27.9800
2022-08-26T01:48:58.493Z,27.9800
2022-08-26T01:49:09.548Z,27.9800
2022-08-26T01:49:20.710Z,27.9900
2022-08-26T01:49:32.035Z,27.9900
2022-08-26T01:49:45.840Z,28.0000
2022-08-26T01:49:57.057Z,27.9800
2022-08-26T01:50:08.625Z,27.9900
2022-08-26T01:50:28.129Z,27.9900
2022-08-26T01:50:36.696Z,27.9900
2022-08-26T01:50:47.949Z,27.9800
2022-08-26T01:50:59.121Z,27.9800
2022-08-26T01:51:10.283Z,27.9800
2022-08-26T01:51:21.320Z,27.9900
2022-08-26T01:51:32.370Z,28.0000
2022-08-26T01:51:43.609Z,28.0000
2022-08-26T01:51:54.668Z,28.0000
2022-08-26T01:52:05.738Z,28.0100
2022-08-26T01:52:17.301Z,28.0100
2022-08-26T01:52:28.472Z,28.0100
2022-08-26T01:52:39.603Z,28.0000
2022-08-26T01:52:54.215Z,28.0000
2022-08-26T01:53:06.352Z,28.0000
2022-08-26T01:53:17.791Z,27.9800
2022-08-26T01:53:28.880Z,27.9800
2022-08-26T01:53:39.940Z,27.9900
2022-08-26T01:53:52.951Z,27.9900
2022-08-26T01:54:04.461Z,27.9800
2022-08-26T01:54:15.974Z,27.9800
2022-08-26T01:54:27.150Z,27.9800
2022-08-26T01:54:38.351Z,27.9800
2022-08-26T01:54:50.594Z,27.9800
2022-08-26T01:55:02.407Z,27.9800
2022-08-26T01:55:13.551Z,27.9800
2022-08-26T01:55:33.004Z,27.9800
2022-08-26T01:55:44.630Z,27.9700
2022-08-26T01:55:55.878Z,27.9600
2022-08-26T01:56:06.961Z,27.9700
2022-08-26T01:56:18.185Z,27.9800
2022-08-26T01:56:33.462Z,27.9900
2022-08-26T01:56:48.925Z,27.9800
2022-08-26T01:57:00.101Z,27.9600
2022-08-26T01:57:11.305Z,27.9700
2022-08-26T01:57:22.621Z,27.9900
2022-08-26T01:57:34.808Z,27.9900
2022-08-26T01:57:45.961Z,27.9900
2022-08-26T01:57:57.174Z,28.0000
2022-08-26T01:58:08.210Z,28.0100
2022-08-26T01:58:19.265Z,28.0100
2022-08-26T01:58:30.332Z,28.0100
2022-08-26T01:58:41.529Z,28.0200
2022-08-26T01:58:52.722Z,28.0200
2022-08-26T01:59:03.932Z,28.0200
2022-08-26T01:59:15.064Z,28.0200
2022-08-26T01:59:26.162Z,28.0200
2022-08-26T01:59:37.307Z,28.0200
2022-08-26T01:59:48.483Z,28.0200
2022-08-26T01:59:59.549Z,28.0300
2022-08-26T02:00:10.620Z,28.0300
2022-08-26T02:00:21.679Z,28.0300
2022-08-26T02:00:33.295Z,28.0300
2022-08-26T02:00:44.558Z,28.0300
2022-08-26T02:00:55.740Z,28.0300
2022-08-26T02:01:06.848Z,28.0200
2022-08-26T02:01:20.921Z,28.0200
2022-08-26T02:01:32.055Z,28.0100
2022-08-26T02:01:43.280Z,28.0100
2022-08-26T02:01:54.549Z,28.0100
2022-08-26T02:02:05.668Z,28.0100
2022-08-26T02:02:16.712Z,28.0200
2022-08-26T02:02:27.847Z,28.0200
2022-08-26T02:02:38.906Z,28.0100
2022-08-26T02:02:49.957Z,28.0100
2022-08-26T02:03:01.181Z,28.0100
2022-08-26T02:03:12.306Z,28.0100
2022-08-26T02:03:24.546Z,28.0200
2022-08-26T02:03:35.692Z,28.0100
2022-08-26T02:03:50.182Z,28.0200
2022-08-26T02:04:01.310Z,28.0000
2022-08-26T02:04:12.462Z,28.0100
2022-08-26T02:04:23.584Z,28.0100
2022-08-26T02:04:35.689Z,28.0200
2022-08-26T02:04:46.858Z,28.0200
2022-08-26T02:05:01.080Z,28.0200
2022-08-26T02:05:12.163Z,28.0000
2022-08-26T02:05:23.214Z,28.0100
2022-08-26T02:05:34.651Z,28.0100
2022-08-26T02:05:46.237Z,28.0100
2022-08-26T02:06:00.411Z,28.0100
2022-08-26T02:06:11.494Z,27.9900
2022-08-26T02:06:23.900Z,28.0000
2022-08-26T02:06:36.144Z,28.0000
2022-08-26T02:06:47.269Z,28.0000
2022-08-26T02:06:58.322Z,28.0000
2022-08-26T02:07:10.339Z,28.0000
2022-08-26T02:07:22.924Z,28.0000
2022-08-26T02:07:37.814Z,27.9900
2022-08-26T02:07:49.916Z,27.9800
2022-08-26T02:08:00.982Z,27.9900
2022-08-26T02:08:12.099Z,27.9900
2022-08-26T02:08:25.444Z,28.0000
2022-08-26T02:08:36.539Z,27.9900
2022-08-26T02:08:47.862Z,28.0000
2022-08-26T02:08:58.953Z,28.0000
2022-08-26T02:09:10.003Z,28.0000
2022-08-26T02:09:21.196Z,28.0000
2022-08-26T02:09:32.256Z,28.0100
2022-08-26T02:09:49.289Z,28.0100
2022-08-26T02:10:00.347Z,27.9900
2022-08-26T02:10:11.407Z,27.9900
2022-08-26T02:10:22.646Z,27.9900
2022-08-26T02:10:34.826Z,28.0000
2022-08-26T02:10:46.993Z,28.0000
2022-08-26T02:10:58.171Z,27.9900
2022-08-26T02:11:09.227Z,28.0000
2022-08-26T02:11:20.312Z,28.0000
2022-08-26T02:11:31.452Z,28.0000
2022-08-26T02:11:43.308Z,28.0100
2022-08-26T02:11:55.011Z,28.0000
2022-08-26T02:12:06.070Z,28.0100
2022-08-26T02:12:17.138Z,28.0100
2022-08-26T02:12:28.276Z,28.0100
2022-08-26T02:12:39.344Z,28.0100
2022-08-26T02:12:50.516Z,28.0000
2022-08-26T02:13:02.076Z,28.0000
2022-08-26T02:13:13.219Z,27.9900
2022-08-26T02:13:25.210Z,27.9900
2022-08-26T02:13:36.301Z,27.9900
2022-08-26T02:13:47.349Z,27.9900
2022-08-26T02:13:59.398Z,28.0000
2022-08-26T02:14:10.506Z,28.0000
2022-08-26T02:14:21.525Z,28.0000
2022-08-26T02:14:32.577Z,28.0000
2022-08-26T02:14:45.826Z,28.0100
2022-08-26T02:14:57.176Z,27.9900
2022-08-26T02:15:08.224Z,27.9900
2022-08-26T02:15:22.398Z,28.0000
2022-08-26T02:15:33.656Z,27.9900
2022-08-26T02:15:45.658Z,27.9900
2022-08-26T02:15:56.826Z,28.0000
2022-08-26T02:16:08.628Z,28.0000
2022-08-26T02:16:19.809Z,28.0000
2022-08-26T02:16:30.986Z,28.0000
2022-08-26T02:16:42.433Z,28.0100
2022-08-26T02:16:53.959Z,28.0100
2022-08-26T02:17:05.059Z,28.0100
2022-08-26T02:17:18.510Z,28.0100
2022-08-26T02:17:32.610Z,28.0000
2022-08-26T02:17:43.938Z,27.9900
2022-08-26T02:17:55.240Z,28.0000
2022-08-26T02:18:08.696Z,28.0100
2022-08-26T02:18:25.639Z,28.0000
2022-08-26T02:18:36.827Z,27.9900
2022-08-26T02:18:48.101Z,27.9900
2022-08-26T02:18:59.178Z,28.0000
2022-08-26T02:19:11.697Z,28.0100
2022-08-26T02:19:27.949Z,28.0000
2022-08-26T02:19:38.987Z,27.9900
2022-08-26T02:19:50.121Z,27.9900
2022-08-26T02:20:01.541Z,28.0000
2022-08-26T02:20:13.350Z,28.0100
2022-08-26T02:20:26.556Z,28.0100
2022-08-26T02:20:37.863Z,27.9900
2022-08-26T02:20:51.720Z,27.9900
2022-08-26T02:21:03.076Z,27.9900
2022-08-26T02:21:18.005Z,27.9800
2022-08-26T02:21:29.055Z,27.9700
2022-08-26T02:21:41.924Z,27.9800
2022-08-26T02:21:53.815Z,27.9800
2022-08-26T02:22:04.877Z,27.9800
2022-08-26T02:22:16.036Z,27.9900
2022-08-26T02:22:27.084Z,27.9900
2022-08-26T02:22:38.155Z,28.0000
2022-08-26T02:22:49.445Z,28.0000
2022-08-26T02:23:00.505Z,28.0000
2022-08-26T02:23:11.937Z,28.0000